Atlantic - Newfoundland: Past 24 Hour Conditions

 

Grates Cove

10:30 AM NDT 25 July 2014
This table is a summary of hourly weather conditions for the past 24 hours.
Date / Time
(NDT)
Wind(knots) Conditions Visibility(km) Pressure(kPa) Air tempC) Relative humidity(%) Dew pointC) Humidex
25 July 2014
10:30 SW 7 N/A N/A 100.5 20 94 19 27
9:30 S 10 gust 15 N/A N/A 100.5 19 98 18 *
8:30 S 11 N/A N/A 100.6 18 99 18 *
7:30 SSW 7 N/A N/A 100.7 18 96 17 *
6:30 SW 10 gust 16 N/A N/A 100.7 19 90 17 *
5:30 SSW 13 N/A N/A 100.7 19 95 18 *
4:30 ESE 1 N/A N/A 100.7 18 92 16 *
3:30 SW 12 N/A N/A 100.7 19 94 18 *
2:30 WSW 20 gust 26 N/A N/A 100.7 19 93 18 *
1:30 WSW 20 gust 25 N/A N/A 100.8 18 96 17 *
0:30 WSW 13 N/A N/A 100.8 17 97 16 *
24 July 2014
23:30 WSW 17 gust 23 N/A N/A 100.8 19 91 18 *
22:30 SW 13 gust 20 N/A N/A 100.8 20 89 18 *
21:30 WSW 18 gust 23 N/A N/A 100.8 20 87 17 *
20:30 WSW 18 gust 24 N/A N/A 100.7 20 85 17 *
19:30 WSW 21 gust 26 N/A N/A 100.6 21 81 17 26
18:30 WSW 23 gust 28 N/A N/A 100.6 21 78 17 27
17:30 WSW 22 gust 27 N/A N/A 100.6 22 75 17 27
16:30 SW 16 gust 21 N/A N/A 100.5 22 74 17 27
15:30 WSW 11 gust 16 N/A N/A 100.6 22 73 17 28
14:30 WSW 22 gust 28 N/A N/A 100.5 21 76 17 26
13:30 WSW 15 gust 21 N/A N/A 100.5 22 73 17 27
12:30 WSW 16 gust 24 N/A N/A 100.6 20 80 17 25
11:30 W 14 gust 21 N/A N/A 100.5 19 83 16 *
10:30 W 21 N/A N/A 100.5 18 85 16 *
 
Map of Atlantic - Newfoundland marine weather areas Southwestern Grand Banks - 44138 Banquereau - 44139 Tail of the Bank - 44140 Nickerson Bank - 44251 Northeast Burgeo Bank - 44255 Blanc-Sablon Airport Cap Whittle Chevery Natashquan Airport Heath Point Miscou Island Grand Étang Ingonish Beach North Mountain St.Paul Island J.A. Douglas McCurdy Sydney Airport Charlottetown Airport East Point North Cape Argentia Bonavista Burgeo Cape Race Corner Brook Daniel's Harbour Englee Ferolle Point La Scie Port aux Basques Rocky Harbour Sagona Island St. Anthony Airport St. John's Int'l Airport St. Lawrence Stephenville Airport Twillingate Winterland Wreckhouse Cartwright Airport Mary's Harbour Grates Cove Pool's Island Marticot Island Long Pond Îles de la Madeleine Airport
Legend: buoyBuoy land stationLand Station